sensor_id;sensor_type;location;lat;lon;timestamp;pressure;altitude;pressure_sealevel;temperature;humidity
29247;BME280;16272;48.188;9.964;2024-01-16T00:00:28;95149.19;;;-2.99;63.53
29247;BME280;16272;48.188;9.964;2024-01-16T00:02:53;95144.50;;;-3.08;63.24
29247;BME280;16272;48.188;9.964;2024-01-16T00:05:18;95146.53;;;-3.14;62.96
29247;BME280;16272;48.188;9.964;2024-01-16T00:07:44;95141.34;;;-3.29;63.77
29247;BME280;16272;48.188;9.964;2024-01-16T00:10:09;95147.53;;;-3.32;63.58
29247;BME280;16272;48.188;9.964;2024-01-16T00:12:34;95148.88;;;-3.25;63.72
29247;BME280;16272;48.188;9.964;2024-01-16T00:15:00;95161.59;;;-3.20;62.86
29247;BME280;16272;48.188;9.964;2024-01-16T00:17:25;95149.81;;;-3.26;63.47
29247;BME280;16272;48.188;9.964;2024-01-16T00:19:50;95149.22;;;-3.31;62.87
29247;BME280;16272;48.188;9.964;2024-01-16T00:22:16;95146.97;;;-3.37;63.39
29247;BME280;16272;48.188;9.964;2024-01-16T00:24:41;95150.31;;;-3.35;63.41
29247;BME280;16272;48.188;9.964;2024-01-16T00:27:06;95156.16;;;-3.32;63.37
29247;BME280;16272;48.188;9.964;2024-01-16T00:29:31;95151.22;;;-3.36;62.91
29247;BME280;16272;48.188;9.964;2024-01-16T00:31:57;95152.88;;;-3.51;63.83
29247;BME280;16272;48.188;9.964;2024-01-16T00:34:22;95156.25;;;-3.49;63.66
29247;BME280;16272;48.188;9.964;2024-01-16T00:36:47;95158.50;;;-3.59;63.73
29247;BME280;16272;48.188;9.964;2024-01-16T00:39:13;95151.88;;;-3.48;63.65
29247;BME280;16272;48.188;9.964;2024-01-16T00:41:39;95161.88;;;-3.74;64.54
29247;BME280;16272;48.188;9.964;2024-01-16T00:44:04;95160.22;;;-3.75;64.48
29247;BME280;16272;48.188;9.964;2024-01-16T00:46:30;95170.09;;;-3.82;64.59
29247;BME280;16272;48.188;9.964;2024-01-16T00:48:55;95169.66;;;-3.90;65.17
29247;BME280;16272;48.188;9.964;2024-01-16T00:51:20;95170.66;;;-3.93;65.48
29247;BME280;16272;48.188;9.964;2024-01-16T00:53:46;95176.13;;;-3.99;66.18
29247;BME280;16272;48.188;9.964;2024-01-16T00:56:11;95179.81;;;-4.03;65.15
29247;BME280;16272;48.188;9.964;2024-01-16T00:58:37;95176.44;;;-3.88;64.82
29247;BME280;16272;48.188;9.964;2024-01-16T01:01:03;95180.88;;;-3.90;64.98
29247;BME280;16272;48.188;9.964;2024-01-16T01:03:28;95185.91;;;-4.04;65.57
29247;BME280;16272;48.188;9.964;2024-01-16T01:05:54;95187.31;;;-4.49;66.02
29247;BME280;16272;48.188;9.964;2024-01-16T01:08:19;95191.28;;;-4.25;67.43
29247;BME280;16272;48.188;9.964;2024-01-16T01:10:45;95192.34;;;-4.29;66.17
29247;BME280;16272;48.188;9.964;2024-01-16T01:13:10;95196.16;;;-4.18;66.34
29247;BME280;16272;48.188;9.964;2024-01-16T01:15:35;95196.63;;;-4.28;66.47
29247;BME280;16272;48.188;9.964;2024-01-16T01:18:00;95190.66;;;-4.12;65.34
29247;BME280;16272;48.188;9.964;2024-01-16T01:20:26;95195.00;;;-4.30;65.78
29247;BME280;16272;48.188;9.964;2024-01-16T01:22:51;95199.97;;;-4.43;66.81
29247;BME280;16272;48.188;9.964;2024-01-16T01:25:17;95200.28;;;-4.49;66.17
29247;BME280;16272;48.188;9.964;2024-01-16T01:27:42;95203.97;;;-4.72;66.11
29247;BME280;16272;48.188;9.964;2024-01-16T01:30:08;95210.00;;;-4.54;67.14
29247;BME280;16272;48.188;9.964;2024-01-16T01:32:35;95212.16;;;-4.45;66.42
29247;BME280;16272;48.188;9.964;2024-01-16T01:35:01;95205.47;;;-4.49;66.15
29247;BME280;16272;48.188;9.964;2024-01-16T01:37:26;95199.06;;;-4.42;65.88
29247;BME280;16272;48.188;9.964;2024-01-16T01:39:51;95199.97;;;-4.43;65.49
29247;BME280;16272;48.188;9.964;2024-01-16T01:42:16;95209.13;;;-4.53;66.01
29247;BME280;16272;48.188;9.964;2024-01-16T01:44:42;95203.59;;;-4.65;66.51
29247;BME280;16272;48.188;9.964;2024-01-16T01:47:08;95200.56;;;-4.73;66.87
29247;BME280;16272;48.188;9.964;2024-01-16T01:49:34;95205.50;;;-4.68;66.86
29247;BME280;16272;48.188;9.964;2024-01-16T01:52:01;95198.41;;;-4.82;67.06
29247;BME280;16272;48.188;9.964;2024-01-16T01:54:27;95204.75;;;-4.70;66.65
29247;BME280;16272;48.188;9.964;2024-01-16T01:56:52;95204.66;;;-4.86;66.82
29247;BME280;16272;48.188;9.964;2024-01-16T01:59:19;95212.34;;;-4.85;67.57
29247;BME280;16272;48.188;9.964;2024-01-16T02:01:48;95216.78;;;-4.87;67.61
29247;BME280;16272;48.188;9.964;2024-01-16T02:04:14;95221.53;;;-4.96;67.78
29247;BME280;16272;48.188;9.964;2024-01-16T02:06:42;95226.41;;;-4.90;67.95
29247;BME280;16272;48.188;9.964;2024-01-16T02:09:09;95207.78;;;-4.80;67.02
29247;BME280;16272;48.188;9.964;2024-01-16T02:11:34;95219.56;;;-4.91;67.66
29247;BME280;16272;48.188;9.964;2024-01-16T02:14:00;95221.97;;;-5.06;68.63
29247;BME280;16272;48.188;9.964;2024-01-16T02:16:25;95217.13;;;-4.94;67.44
29247;BME280;16272;48.188;9.964;2024-01-16T02:18:51;95206.56;;;-5.09;68.38
29247;BME280;16272;48.188;9.964;2024-01-16T02:21:21;95212.56;;;-4.89;67.95
29247;BME280;16272;48.188;9.964;2024-01-16T02:23:47;95205.41;;;-4.84;67.33
29247;BME280;16272;48.188;9.964;2024-01-16T02:26:14;95203.88;;;-4.88;67.09
29247;BME280;16272;48.188;9.964;2024-01-16T02:28:41;95214.09;;;-4.85;67.28
29247;BME280;16272;48.188;9.964;2024-01-16T02:31:07;95216.38;;;-5.15;68.03
29247;BME280;16272;48.188;9.964;2024-01-16T02:33:32;95218.63;;;-5.08;68.05
29247;BME280;16272;48.188;9.964;2024-01-16T02:35:58;95218.94;;;-5.35;68.76
29247;BME280;16272;48.188;9.964;2024-01-16T02:38:23;95231.56;;;-5.85;69.75
29247;BME280;16272;48.188;9.964;2024-01-16T02:40:49;95222.31;;;-5.91;70.81
29247;BME280;16272;48.188;9.964;2024-01-16T02:43:15;95218.38;;;-5.79;70.36
29247;BME280;16272;48.188;9.964;2024-01-16T02:45:40;95220.56;;;-5.91;71.53
29247;BME280;16272;48.188;9.964;2024-01-16T02:48:05;95224.66;;;-5.85;71.04
29247;BME280;16272;48.188;9.964;2024-01-16T02:50:31;95223.78;;;-6.25;70.60
29247;BME280;16272;48.188;9.964;2024-01-16T02:52:56;95217.44;;;-5.97;70.76
29247;BME280;16272;48.188;9.964;2024-01-16T02:55:21;95222.53;;;-5.96;70.71
29247;BME280;16272;48.188;9.964;2024-01-16T02:57:46;95230.16;;;-5.53;70.26
29247;BME280;16272;48.188;9.964;2024-01-16T03:00:12;95223.94;;;-5.49;69.42
29247;BME280;16272;48.188;9.964;2024-01-16T03:02:38;95218.47;;;-5.43;68.89
29247;BME280;16272;48.188;9.964;2024-01-16T03:05:04;95221.72;;;-5.38;69.00
29247;BME280;16272;48.188;9.964;2024-01-16T03:07:33;95224.91;;;-5.51;69.36
29247;BME280;16272;48.188;9.964;2024-01-16T03:09:58;95226.19;;;-5.81;69.66
29247;BME280;16272;48.188;9.964;2024-01-16T03:12:23;95228.88;;;-5.63;70.13
29247;BME280;16272;48.188;9.964;2024-01-16T03:14:49;95240.41;;;-5.70;69.67
29247;BME280;16272;48.188;9.964;2024-01-16T03:17:14;95236.91;;;-5.69;69.73
29247;BME280;16272;48.188;9.964;2024-01-16T03:19:39;95236.34;;;-5.76;69.73
29247;BME280;16272;48.188;9.964;2024-01-16T03:22:05;95239.13;;;-5.81;69.72
29247;BME280;16272;48.188;9.964;2024-01-16T03:24:30;95234.84;;;-6.01;70.67
29247;BME280;16272;48.188;9.964;2024-01-16T03:26:56;95239.38;;;-6.06;70.40
29247;BME280;16272;48.188;9.964;2024-01-16T03:29:21;95237.97;;;-5.94;70.47
29247;BME280;16272;48.188;9.964;2024-01-16T03:31:46;95236.22;;;-6.13;70.53
29247;BME280;16272;48.188;9.964;2024-01-16T03:34:13;95227.16;;;-6.23;70.61
29247;BME280;16272;48.188;9.964;2024-01-16T03:36:38;95241.13;;;-6.27;71.41
29247;BME280;16272;48.188;9.964;2024-01-16T03:39:03;95241.63;;;-6.39;70.99
29247;BME280;16272;48.188;9.964;2024-01-16T03:41:29;95239.75;;;-6.78;71.82
29247;BME280;16272;48.188;9.964;2024-01-16T03:43:54;95244.66;;;-6.72;71.57
29247;BME280;16272;48.188;9.964;2024-01-16T03:46:21;95238.31;;;-6.63;71.58
29247;BME280;16272;48.188;9.964;2024-01-16T03:48:47;95244.31;;;-6.85;72.30
29247;BME280;16272;48.188;9.964;2024-01-16T03:51:12;95244.81;;;-6.75;72.29
29247;BME280;16272;48.188;9.964;2024-01-16T03:53:40;95239.00;;;-6.60;72.19
29247;BME280;16272;48.188;9.964;2024-01-16T03:56:06;95242.97;;;-6.51;72.30
29247;BME280;16272;48.188;9.964;2024-01-16T03:58:33;95240.06;;;-6.43;71.13
29247;BME280;16272;48.188;9.964;2024-01-16T04:00:58;95235.03;;;-6.47;71.81
29247;BME280;16272;48.188;9.964;2024-01-16T04:03:23;95236.13;;;-6.74;73.02
29247;BME280;16272;48.188;9.964;2024-01-16T04:05:48;95238.59;;;-6.71;71.37
29247;BME280;16272;48.188;9.964;2024-01-16T04:08:14;95244.13;;;-7.48;72.90
29247;BME280;16272;48.188;9.964;2024-01-16T04:10:39;95248.63;;;-7.77;74.11
29247;BME280;16272;48.188;9.964;2024-01-16T04:13:04;95240.91;;;-7.31;73.26
29247;BME280;16272;48.188;9.964;2024-01-16T04:15:29;95244.03;;;-7.45;73.21
29247;BME280;16272;48.188;9.964;2024-01-16T04:17:55;95241.28;;;-7.41;72.94
29247;BME280;16272;48.188;9.964;2024-01-16T04:20:20;95239.97;;;-7.29;72.38
29247;BME280;16272;48.188;9.964;2024-01-16T04:22:46;95244.06;;;-7.47;73.62
29247;BME280;16272;48.188;9.964;2024-01-16T04:25:11;95234.44;;;-7.42;73.06
29247;BME280;16272;48.188;9.964;2024-01-16T04:27:36;95243.28;;;-7.72;72.95
29247;BME280;16272;48.188;9.964;2024-01-16T04:30:02;95249.22;;;-7.94;74.15
29247;BME280;16272;48.188;9.964;2024-01-16T04:32:28;95250.03;;;-7.94;74.42
29247;BME280;16272;48.188;9.964;2024-01-16T04:34:53;95259.47;;;-7.92;74.36
29247;BME280;16272;48.188;9.964;2024-01-16T04:37:18;95252.84;;;-8.00;74.76
29247;BME280;16272;48.188;9.964;2024-01-16T04:39:44;95253.44;;;-7.91;75.93
29247;BME280;16272;48.188;9.964;2024-01-16T04:42:09;95252.75;;;-7.97;75.40
29247;BME280;16272;48.188;9.964;2024-01-16T04:44:34;95261.19;;;-8.18;75.91
29247;BME280;16272;48.188;9.964;2024-01-16T04:46:59;95251.94;;;-8.24;74.68
29247;BME280;16272;48.188;9.964;2024-01-16T04:49:25;95256.81;;;-8.15;74.94
29247;BME280;16272;48.188;9.964;2024-01-16T04:51:50;95252.97;;;-8.53;74.79
29247;BME280;16272;48.188;9.964;2024-01-16T04:54:15;95258.56;;;-8.42;75.66
29247;BME280;16272;48.188;9.964;2024-01-16T04:56:40;95256.81;;;-8.41;74.45
29247;BME280;16272;48.188;9.964;2024-01-16T04:59:06;95259.16;;;-8.34;75.41
29247;BME280;16272;48.188;9.964;2024-01-16T05:01:31;95251.75;;;-8.43;75.06
29247;BME280;16272;48.188;9.964;2024-01-16T05:03:56;95256.47;;;-8.31;74.43
29247;BME280;16272;48.188;9.964;2024-01-16T05:06:21;95258.75;;;-8.21;73.48
29247;BME280;16272;48.188;9.964;2024-01-16T05:08:47;95253.91;;;-8.31;75.01
29247;BME280;16272;48.188;9.964;2024-01-16T05:11:13;95256.47;;;-8.31;75.75
29247;BME280;16272;48.188;9.964;2024-01-16T05:13:38;95267.25;;;-8.19;74.04
29247;BME280;16272;48.188;9.964;2024-01-16T05:16:04;95266.94;;;-7.85;72.55
29247;BME280;16272;48.188;9.964;2024-01-16T05:18:30;95256.09;;;-7.95;72.86
29247;BME280;16272;48.188;9.964;2024-01-16T05:20:57;95262.22;;;-8.47;73.18
29247;BME280;16272;48.188;9.964;2024-01-16T05:23:23;95254.88;;;-8.35;74.86
29247;BME280;16272;48.188;9.964;2024-01-16T05:25:48;95258.09;;;-8.28;73.26
29247;BME280;16272;48.188;9.964;2024-01-16T05:28:15;95260.94;;;-8.36;74.40
29247;BME280;16272;48.188;9.964;2024-01-16T05:30:40;95254.00;;;-8.34;74.20
29247;BME280;16272;48.188;9.964;2024-01-16T05:33:05;95253.25;;;-8.62;75.11
29247;BME280;16272;48.188;9.964;2024-01-16T05:35:32;95246.13;;;-8.29;74.62
29247;BME280;16272;48.188;9.964;2024-01-16T05:37:57;95242.94;;;-8.62;75.87
29247;BME280;16272;48.188;9.964;2024-01-16T05:40:24;95251.06;;;-9.01;75.49
29247;BME280;16272;48.188;9.964;2024-01-16T05:42:50;95245.44;;;-8.86;76.11
29247;BME280;16272;48.188;9.964;2024-01-16T05:45:15;95242.03;;;-8.60;75.60
29247;BME280;16272;48.188;9.964;2024-01-16T05:47:41;95239.91;;;-8.74;76.28
29247;BME280;16272;48.188;9.964;2024-01-16T05:50:07;95228.78;;;-8.76;76.72
29247;BME280;16272;48.188;9.964;2024-01-16T05:52:32;95225.47;;;-8.79;77.93
29247;BME280;16272;48.188;9.964;2024-01-16T05:54:57;95231.47;;;-8.52;76.57
29247;BME280;16272;48.188;9.964;2024-01-16T05:57:25;95227.75;;;-8.43;75.10
29247;BME280;16272;48.188;9.964;2024-01-16T05:59:50;95227.34;;;-8.33;73.94
29247;BME280;16272;48.188;9.964;2024-01-16T06:02:15;95224.50;;;-8.25;73.31
29247;BME280;16272;48.188;9.964;2024-01-16T06:04:41;95225.91;;;-8.41;75.47
29247;BME280;16272;48.188;9.964;2024-01-16T06:07:06;95219.44;;;-8.52;74.86
29247;BME280;16272;48.188;9.964;2024-01-16T06:09:33;95219.72;;;-8.61;75.48
29247;BME280;16272;48.188;9.964;2024-01-16T06:11:58;95216.84;;;-8.77;75.72
29247;BME280;16272;48.188;9.964;2024-01-16T06:14:24;95207.81;;;-8.63;76.00
29247;BME280;16272;48.188;9.964;2024-01-16T06:16:50;95209.75;;;-8.45;75.89
29247;BME280;16272;48.188;9.964;2024-01-16T06:19:16;95204.94;;;-8.54;74.95
29247;BME280;16272;48.188;9.964;2024-01-16T06:21:42;95196.72;;;-8.65;74.85
29247;BME280;16272;48.188;9.964;2024-01-16T06:24:07;95198.78;;;-8.50;74.63
29247;BME280;16272;48.188;9.964;2024-01-16T06:26:33;95197.81;;;-8.46;75.41
29247;BME280;16272;48.188;9.964;2024-01-16T06:28:58;95198.13;;;-8.32;74.95
29247;BME280;16272;48.188;9.964;2024-01-16T06:31:24;95195.44;;;-8.28;73.79
29247;BME280;16272;48.188;9.964;2024-01-16T06:33:51;95207.09;;;-8.18;73.42
29247;BME280;16272;48.188;9.964;2024-01-16T06:36:16;95207.03;;;-7.91;72.66
29247;BME280;16272;48.188;9.964;2024-01-16T06:38:42;95220.34;;;-8.04;73.31
29247;BME280;16272;48.188;9.964;2024-01-16T06:41:07;95216.47;;;-8.41;74.66
29247;BME280;16272;48.188;9.964;2024-01-16T06:43:32;95219.63;;;-8.33;75.58
29247;BME280;16272;48.188;9.964;2024-01-16T06:45:58;95222.09;;;-8.29;76.29
29247;BME280;16272;48.188;9.964;2024-01-16T06:48:23;95218.28;;;-8.43;77.25
29247;BME280;16272;48.188;9.964;2024-01-16T06:50:49;95219.44;;;-8.52;77.61
29247;BME280;16272;48.188;9.964;2024-01-16T06:53:14;95226.91;;;-8.44;77.44
29247;BME280;16272;48.188;9.964;2024-01-16T06:55:40;95225.31;;;-8.23;77.51
29247;BME280;16272;48.188;9.964;2024-01-16T06:58:05;95233.03;;;-8.23;76.42
29247;BME280;16272;48.188;9.964;2024-01-16T07:00:31;95232.75;;;-8.15;76.14
29247;BME280;16272;48.188;9.964;2024-01-16T07:02:56;95229.59;;;-8.23;76.90
29247;BME280;16272;48.188;9.964;2024-01-16T07:05:23;95229.19;;;-8.11;76.63
29247;BME280;16272;48.188;9.964;2024-01-16T07:07:48;95234.13;;;-8.05;76.92
29247;BME280;16272;48.188;9.964;2024-01-16T07:10:14;95239.41;;;-8.08;76.87
29247;BME280;16272;48.188;9.964;2024-01-16T07:12:44;95233.16;;;-7.77;75.46
29247;BME280;16272;48.188;9.964;2024-01-16T07:15:09;95232.47;;;-7.59;74.36
29247;BME280;16272;48.188;9.964;2024-01-16T07:17:35;95229.75;;;-7.54;73.61
29247;BME280;16272;48.188;9.964;2024-01-16T07:20:00;95227.19;;;-7.32;73.46
29247;BME280;16272;48.188;9.964;2024-01-16T07:22:25;95235.00;;;-7.11;72.97
29247;BME280;16272;48.188;9.964;2024-01-16T07:24:52;95233.59;;;-7.42;73.90
29247;BME280;16272;48.188;9.964;2024-01-16T07:27:17;95225.91;;;-7.44;73.52
29247;BME280;16272;48.188;9.964;2024-01-16T07:29:42;95226.53;;;-7.61;74.24
29247;BME280;16272;48.188;9.964;2024-01-16T07:32:08;95224.00;;;-7.86;75.97
29247;BME280;16272;48.188;9.964;2024-01-16T07:34:35;95215.53;;;-7.66;75.61
29247;BME280;16272;48.188;9.964;2024-01-16T07:37:01;95224.38;;;-7.26;74.23
29247;BME280;16272;48.188;9.964;2024-01-16T07:39:26;95208.41;;;-6.91;72.33
29247;BME280;16272;48.188;9.964;2024-01-16T07:41:51;95206.38;;;-6.83;72.91
29247;BME280;16272;48.188;9.964;2024-01-16T07:44:17;95207.06;;;-6.79;72.87
29247;BME280;16272;48.188;9.964;2024-01-16T07:46:42;95200.06;;;-7.20;74.18
29247;BME280;16272;48.188;9.964;2024-01-16T07:49:07;95206.84;;;-7.17;74.78
29247;BME280;16272;48.188;9.964;2024-01-16T07:51:33;95200.97;;;-6.99;73.60
29247;BME280;16272;48.188;9.964;2024-01-16T07:54:06;95200.03;;;-6.96;73.99
29247;BME280;16272;48.188;9.964;2024-01-16T07:56:32;95197.72;;;-7.04;74.72
29247;BME280;16272;48.188;9.964;2024-01-16T07:58:57;95192.94;;;-6.91;74.92
29247;BME280;16272;48.188;9.964;2024-01-16T08:01:22;95193.28;;;-6.78;73.81
29247;BME280;16272;48.188;9.964;2024-01-16T08:03:47;95200.38;;;-7.06;75.38
29247;BME280;16272;48.188;9.964;2024-01-16T08:06:13;95199.69;;;-6.89;75.94
29247;BME280;16272;48.188;9.964;2024-01-16T08:08:39;95195.53;;;-6.71;75.03
29247;BME280;16272;48.188;9.964;2024-01-16T08:11:04;95193.88;;;-6.72;74.31
29247;BME280;16272;48.188;9.964;2024-01-16T08:13:29;95194.09;;;-6.56;74.84
29247;BME280;16272;48.188;9.964;2024-01-16T08:15:54;95190.22;;;-6.45;75.10
29247;BME280;16272;48.188;9.964;2024-01-16T08:18:20;95187.78;;;-6.30;74.63
29247;BME280;16272;48.188;9.964;2024-01-16T08:20:45;95198.81;;;-6.24;74.12
29247;BME280;16272;48.188;9.964;2024-01-16T08:23:10;95194.59;;;-6.27;74.59
29247;BME280;16272;48.188;9.964;2024-01-16T08:25:36;95206.16;;;-6.15;73.49
29247;BME280;16272;48.188;9.964;2024-01-16T08:28:01;95199.47;;;-6.00;73.67
29247;BME280;16272;48.188;9.964;2024-01-16T08:30:26;95203.91;;;-5.83;73.75
29247;BME280;16272;48.188;9.964;2024-01-16T08:32:51;95191.66;;;-5.61;73.96
29247;BME280;16272;48.188;9.964;2024-01-16T08:35:17;95198.34;;;-5.55;73.70
29247;BME280;16272;48.188;9.964;2024-01-16T08:37:42;95203.34;;;-5.71;73.76
29247;BME280;16272;48.188;9.964;2024-01-16T08:40:08;95197.81;;;-4.70;71.32
29247;BME280;16272;48.188;9.964;2024-01-16T08:42:33;95197.22;;;-4.57;72.67
29247;BME280;16272;48.188;9.964;2024-01-16T08:44:58;95192.66;;;-4.35;71.35
29247;BME280;16272;48.188;9.964;2024-01-16T08:47:24;95188.53;;;-4.21;71.17
29247;BME280;16272;48.188;9.964;2024-01-16T08:49:49;95193.41;;;-4.15;69.99
29247;BME280;16272;48.188;9.964;2024-01-16T08:52:14;95199.97;;;-4.08;70.13
29247;BME280;16272;48.188;9.964;2024-01-16T08:54:40;95197.75;;;-3.98;70.35
29247;BME280;16272;48.188;9.964;2024-01-16T08:57:06;95182.06;;;-3.79;68.73
29247;BME280;16272;48.188;9.964;2024-01-16T08:59:31;95176.81;;;-2.66;70.25
29247;BME280;16272;48.188;9.964;2024-01-16T09:01:57;95165.28;;;-2.46;68.01
29247;BME280;16272;48.188;9.964;2024-01-16T09:04:22;95160.00;;;-1.71;66.42
29247;BME280;16272;48.188;9.964;2024-01-16T09:06:48;95155.03;;;-2.19;67.10
29247;BME280;16272;48.188;9.964;2024-01-16T09:09:13;95145.63;;;-2.22;65.44
29247;BME280;16272;48.188;9.964;2024-01-16T09:11:41;95160.91;;;-2.92;64.63
29247;BME280;16272;48.188;9.964;2024-01-16T09:14:06;95154.47;;;-3.01;66.89
29247;BME280;16272;48.188;9.964;2024-01-16T09:16:31;95149.44;;;-3.04;66.88
29247;BME280;16272;48.188;9.964;2024-01-16T09:18:56;95153.81;;;-3.04;67.25
29247;BME280;16272;48.188;9.964;2024-01-16T09:21:22;95156.84;;;-3.12;67.14
29247;BME280;16272;48.188;9.964;2024-01-16T09:23:47;95153.56;;;-3.00;65.80
29247;BME280;16272;48.188;9.964;2024-01-16T09:26:12;95164.13;;;-3.19;67.37
29247;BME280;16272;48.188;9.964;2024-01-16T09:28:38;95169.56;;;-3.39;67.08
29247;BME280;16272;48.188;9.964;2024-01-16T09:31:05;95176.09;;;-3.48;68.06
29247;BME280;16272;48.188;9.964;2024-01-16T09:33:31;95171.75;;;-3.16;67.63
29247;BME280;16272;48.188;9.964;2024-01-16T09:35:56;95171.72;;;-2.37;64.94
29247;BME280;16272;48.188;9.964;2024-01-16T09:38:21;95166.53;;;-2.84;65.58
29247;BME280;16272;48.188;9.964;2024-01-16T09:40:46;95161.84;;;-2.47;66.08
29247;BME280;16272;48.188;9.964;2024-01-16T09:43:12;95164.72;;;-2.67;65.69
29247;BME280;16272;48.188;9.964;2024-01-16T09:45:38;95163.75;;;-2.81;64.85
29247;BME280;16272;48.188;9.964;2024-01-16T09:48:05;95165.63;;;-2.99;65.53
29247;BME280;16272;48.188;9.964;2024-01-16T09:50:30;95161.78;;;-3.07;64.51
29247;BME280;16272;48.188;9.964;2024-01-16T09:52:55;95158.78;;;-2.69;65.17
29247;BME280;16272;48.188;9.964;2024-01-16T09:55:21;95157.56;;;-2.78;65.05
29247;BME280;16272;48.188;9.964;2024-01-16T09:57:51;95155.13;;;-2.97;64.84
29247;BME280;16272;48.188;9.964;2024-01-16T10:00:18;95156.16;;;-3.32;65.66
29247;BME280;16272;48.188;9.964;2024-01-16T10:02:44;95154.97;;;-2.94;64.86
29247;BME280;16272;48.188;9.964;2024-01-16T10:05:11;95147.72;;;-2.57;64.81
29247;BME280;16272;48.188;9.964;2024-01-16T10:07:41;95150.13;;;-2.54;64.44
29247;BME280;16272;48.188;9.964;2024-01-16T10:10:10;95145.94;;;-2.56;63.60
29247;BME280;16272;48.188;9.964;2024-01-16T10:12:37;95153.34;;;-2.34;63.07
29247;BME280;16272;48.188;9.964;2024-01-16T10:15:07;95151.69;;;-2.21;63.50
29247;BME280;16272;48.188;9.964;2024-01-16T10:17:41;95147.81;;;-1.99;63.79
29247;BME280;16272;48.188;9.964;2024-01-16T10:20:08;95140.13;;;-1.87;62.03
29247;BME280;16272;48.188;9.964;2024-01-16T10:22:39;95144.28;;;-1.84;62.58
29247;BME280;16272;48.188;9.964;2024-01-16T10:25:05;95146.44;;;-1.76;62.14
29247;BME280;16272;48.188;9.964;2024-01-16T10:27:31;95139.28;;;-0.75;61.70
29247;BME280;16272;48.188;9.964;2024-01-16T10:29:58;95123.22;;;-0.16;60.89
29247;BME280;16272;48.188;9.964;2024-01-16T10:32:36;95125.09;;;-0.31;61.54
29247;BME280;16272;48.188;9.964;2024-01-16T10:35:06;95114.44;;;-0.15;60.44
29247;BME280;16272;48.188;9.964;2024-01-16T10:37:43;95117.41;;;-0.60;62.06
29247;BME280;16272;48.188;9.964;2024-01-16T10:40:09;95112.38;;;0.03;61.03
29247;BME280;16272;48.188;9.964;2024-01-16T10:42:34;95109.97;;;0.26;60.57
29247;BME280;16272;48.188;9.964;2024-01-16T10:45:00;95113.06;;;0.44;59.54
29247;BME280;16272;48.188;9.964;2024-01-16T10:47:25;95109.22;;;0.24;59.68
29247;BME280;16272;48.188;9.964;2024-01-16T10:49:50;95106.00;;;0.33;61.07
29247;BME280;16272;48.188;9.964;2024-01-16T10:52:17;95107.25;;;0.14;59.73
29247;BME280;16272;48.188;9.964;2024-01-16T10:54:43;95119.13;;;-0.46;58.45
29247;BME280;16272;48.188;9.964;2024-01-16T10:57:14;95118.56;;;0.15;61.63
29247;BME280;16272;48.188;9.964;2024-01-16T10:59:45;95111.25;;;0.70;59.60
29247;BME280;16272;48.188;9.964;2024-01-16T11:02:14;95111.59;;;0.89;58.04
29247;BME280;16272;48.188;9.964;2024-01-16T11:04:43;95107.72;;;1.19;58.01
29247;BME280;16272;48.188;9.964;2024-01-16T11:07:08;95109.16;;;1.83;57.71
29247;BME280;16272;48.188;9.964;2024-01-16T11:09:35;95107.66;;;2.14;56.31
29247;BME280;16272;48.188;9.964;2024-01-16T11:12:01;95093.34;;;1.96;53.13
29247;BME280;16272;48.188;9.964;2024-01-16T11:14:30;95099.28;;;1.16;54.95
29247;BME280;16272;48.188;9.964;2024-01-16T11:16:56;95083.78;;;1.37;53.27
29247;BME280;16272;48.188;9.964;2024-01-16T11:19:23;95089.13;;;1.11;55.25
29247;BME280;16272;48.188;9.964;2024-01-16T11:21:50;95083.13;;;0.98;54.30
29247;BME280;16272;48.188;9.964;2024-01-16T11:24:15;95078.38;;;0.54;55.79
29247;BME280;16272;48.188;9.964;2024-01-16T11:26:41;95080.44;;;0.86;53.98
29247;BME280;16272;48.188;9.964;2024-01-16T11:31:54;95064.88;;;2.82;53.18
29247;BME280;16272;48.188;9.964;2024-01-16T11:37:08;95067.09;;;2.31;53.89
29247;BME280;16272;48.188;9.964;2024-01-16T11:39:35;95068.81;;;1.86;51.83
29247;BME280;16272;48.188;9.964;2024-01-16T11:42:00;95067.91;;;1.51;53.47
29247;BME280;16272;48.188;9.964;2024-01-16T11:47:18;95065.38;;;1.14;54.97
29247;BME280;16272;48.188;9.964;2024-01-16T11:49:46;95057.88;;;1.45;53.85
29247;BME280;16272;48.188;9.964;2024-01-16T11:52:11;95051.34;;;2.31;54.41
29247;BME280;16272;48.188;9.964;2024-01-16T11:54:38;95045.13;;;1.76;52.48
29247;BME280;16272;48.188;9.964;2024-01-16T11:57:43;95034.56;;;1.42;53.60
29247;BME280;16272;48.188;9.964;2024-01-16T12:00:19;95037.03;;;2.13;54.52
29247;BME280;16272;48.188;9.964;2024-01-16T12:05:12;95029.47;;;1.16;54.98
29247;BME280;16272;48.188;9.964;2024-01-16T12:07:49;95033.56;;;0.96;53.92
29247;BME280;16272;48.188;9.964;2024-01-16T12:10:19;95024.13;;;1.53;51.85
29247;BME280;16272;48.188;9.964;2024-01-16T12:12:45;95018.47;;;1.24;52.29
29247;BME280;16272;48.188;9.964;2024-01-16T12:15:18;95009.88;;;1.80;51.93
29247;BME280;16272;48.188;9.964;2024-01-16T12:17:52;95000.56;;;1.42;52.67
29247;BME280;16272;48.188;9.964;2024-01-16T12:20:18;94996.84;;;1.33;53.04
29247;BME280;16272;48.188;9.964;2024-01-16T12:22:44;94987.91;;;1.24;52.19
29247;BME280;16272;48.188;9.964;2024-01-16T12:25:09;94986.47;;;1.20;53.20
29247;BME280;16272;48.188;9.964;2024-01-16T12:27:36;94993.72;;;0.44;55.26
29247;BME280;16272;48.188;9.964;2024-01-16T12:30:08;94973.16;;;1.23;55.25
29247;BME280;16272;48.188;9.964;2024-01-16T12:32:33;94963.28;;;1.16;52.21
29247;BME280;16272;48.188;9.964;2024-01-16T12:34:58;94961.66;;;1.49;54.12
29247;BME280;16272;48.188;9.964;2024-01-16T12:37:24;94954.84;;;1.23;53.27
29247;BME280;16272;48.188;9.964;2024-01-16T12:39:49;94963.34;;;1.95;53.12
29247;BME280;16272;48.188;9.964;2024-01-16T12:42:17;94960.59;;;2.30;51.57
29247;BME280;16272;48.188;9.964;2024-01-16T12:44:42;94952.97;;;2.27;50.88
29247;BME280;16272;48.188;9.964;2024-01-16T12:47:08;94939.81;;;1.50;51.55
29247;BME280;16272;48.188;9.964;2024-01-16T12:49:40;94943.72;;;1.55;52.49
29247;BME280;16272;48.188;9.964;2024-01-16T12:52:21;94943.03;;;1.87;53.32
29247;BME280;16272;48.188;9.964;2024-01-16T12:54:59;94930.16;;;1.95;53.42
29247;BME280;16272;48.188;9.964;2024-01-16T12:57:26;94928.03;;;1.89;52.83
29247;BME280;16272;48.188;9.964;2024-01-16T12:59:51;94931.09;;;1.38;54.16
29247;BME280;16272;48.188;9.964;2024-01-16T13:02:21;94930.78;;;0.96;53.25
29247;BME280;16272;48.188;9.964;2024-01-16T13:04:47;94930.25;;;0.79;55.03
29247;BME280;16272;48.188;9.964;2024-01-16T13:07:16;94932.16;;;0.77;54.07